Weather reports worldwide

Advertisment
Briancon, France (7593): temperature & dewpoint: 13.03.2019 10:00:00 - 19.03.2019 10:00:00 (CET)Briancon, France (7593): wind speed: 13.03.2019 10:00:00 - 19.03.2019 10:00:00 (CET)Briancon, France (7593): wind direction: 13.03.2019 10:00:00 - 19.03.2019 10:00:00 (CET)Briancon, France (7593): precipitation: 13.03.2019 10:00:00 - 19.03.2019 10:00:00 (CET)
Date & Time tt [°C] td [°C] ff [km/h] ff [kn] dd rr [mm]
19.03.2019 10:00:00 - - - - - -
19.03.2019 09:00:00 -3,7 -10,3 4 2 SE 0,0
19.03.2019 08:00:00 -4,4 -11,2 2 1 S 0,0
19.03.2019 07:00:00 -3,3 -12,0 12 6 ENE 0,0
19.03.2019 06:00:00 -2,7 -11,5 15 8 ENE 0,0
19.03.2019 05:00:00 -2,1 -11,9 14 7 ENE 0,0
19.03.2019 04:00:00 -1,6 -11,5 9 5 E 0,0
19.03.2019 03:00:00 -1,4 -11,3 12 6 ENE 0,0
19.03.2019 02:00:00 -1,0 -10,6 16 8 ENE 0,0
19.03.2019 01:00:00 -0,5 -10,2 10 6 ENE 0,0
19.03.2019 00:00:00 -0,1 -10,4 11 6 E 0,0
18.03.2019 23:00:00 -0,2 -9,6 6 4 E 0,0
18.03.2019 22:00:00 0,6 -10,6 13 7 ENE 0,0
18.03.2019 21:00:00 1,0 -10,8 10 5 NE 0,0
18.03.2019 20:00:00 1,2 -10,9 11 6 NNE 0,0
18.03.2019 19:00:00 1,4 -10,8 17 9 NE 0,0
18.03.2019 18:00:00 2,3 -10,9 9 5 N 0,0
18.03.2019 17:00:00 4,7 -10,2 8 4 NW 0,0
18.03.2019 16:00:00 4,8 -12,2 10 5 N 0,0
18.03.2019 15:00:00 5,3 -11,8 10 5 NNW 0,0
18.03.2019 14:00:00 4,7 -12,3 11 6 N 0,0
18.03.2019 13:00:00 4,1 -12,0 11 6 NW 0,0
18.03.2019 12:00:00 4,1 -12,4 10 5 NW 0,0
18.03.2019 11:00:00 3,3 -12,3 10 6 NW 0,0
18.03.2019 10:00:00 2,3 -11,6 11 6 N 0,0
18.03.2019 09:00:00 0,8 -10,7 7 4 N 0,0
18.03.2019 08:00:00 0,3 -11,4 16 8 NE 0,0
18.03.2019 07:00:00 0,1 -10,7 11 6 NE 0,0
18.03.2019 06:00:00 -0,2 -10,4 3 2 NNE 0,0
18.03.2019 05:00:00 -0,8 -8,5 8 4 ENE 0,0
18.03.2019 04:00:00 -0,9 -10,0 2 1 SE 0,0
18.03.2019 03:00:00 -0,2 -11,0 9 5 ENE 0,0
18.03.2019 02:00:00 0,8 -11,3 8 5 ENE 0,0
18.03.2019 01:00:00 1,4 -9,5 19 11 NE 0,0
18.03.2019 00:00:00 2,1 -8,3 14 8 N 0,0
17.03.2019 23:00:00 3,1 -7,1 11 6 N 0,0
17.03.2019 22:00:00 3,9 -5,6 13 7 N 0,0
17.03.2019 21:00:00 4,8 -4,0 27 15 NE 0,0
17.03.2019 20:00:00 9,6 -3,0 11 6 SSW 0,0
17.03.2019 19:00:00 10,8 -3,0 16 9 S 0,0
17.03.2019 18:00:00 11,8 -3,2 18 10 S 0,0
17.03.2019 17:00:00 13,0 -4,2 18 10 SSW 0,0
17.03.2019 16:00:00 14,4 -6,5 21 12 SSE 0,0
17.03.2019 15:00:00 14,1 -7,3 19 10 S 0,0
17.03.2019 14:00:00 15,5 -11,9 23 12 S 0,0
17.03.2019 13:00:00 16,0 -10,7 19 10 SSW 0,0
17.03.2019 12:00:00 13,9 -6,4 10 5 WSW 0,0
17.03.2019 11:00:00 11,6 -4,2 3 1 SE 0,0
17.03.2019 10:00:00 4,4 -4,1 3 2 E 0,0
17.03.2019 09:00:00 1,4 -6,2 2 1 S 0,0
17.03.2019 08:00:00 0,1 -5,7 0 0 N 0,0
17.03.2019 07:00:00 -0,5 -6,3 2 1 SW 0,0
17.03.2019 06:00:00 0,0 -6,2 3 2 E 0,0
17.03.2019 05:00:00 0,0 -5,6 3 2 E 0,0
17.03.2019 04:00:00 0,4 -5,6 3 2 NE 0,0
17.03.2019 03:00:00 0,8 -5,5 4 2 E 0,0
17.03.2019 02:00:00 1,2 -4,9 4 2 NE 0,0
17.03.2019 01:00:00 1,7 -4,4 3 1 ESE 0,0
17.03.2019 00:00:00 2,4 -4,1 2 1 ENE 0,0
16.03.2019 23:00:00 3,7 -5,0 4 2 SE 0,0
16.03.2019 22:00:00 3,8 -4,7 3 2 ESE 0,0
16.03.2019 21:00:00 4,8 -4,0 2 1 E 0,0
16.03.2019 20:00:00 6,2 -3,7 3 2 E 0,0
16.03.2019 19:00:00 8,3 -3,9 3 2 S 0,0
16.03.2019 18:00:00 14,2 -3,6 4 2 ENE 0,0
16.03.2019 17:00:00 17,3 -5,3 13 7 W 0,0
16.03.2019 16:00:00 19,3 -12,0 8 5 WSW 0,0
16.03.2019 15:00:00 18,3 -13,9 11 6 ENE 0,0
16.03.2019 14:00:00 18,1 -11,8 9 5 NNE 0,0
16.03.2019 13:00:00 17,2 -12,5 14 7 NE 0,0
16.03.2019 12:00:00 16,3 -14,3 9 5 NE 0,0
16.03.2019 11:00:00 14,1 -5,7 6 3 ENE 0,0
16.03.2019 10:00:00 7,4 -2,9 4 2 S 0,0
16.03.2019 09:00:00 2,1 -1,9 5 3 NNE 0,0
16.03.2019 08:00:00 0,9 -2,9 4 2 SSW 0,0
16.03.2019 07:00:00 0,0 -2,9 2 1 SSE 0,0
16.03.2019 06:00:00 -0,2 -2,9 4 2 SW 0,0
16.03.2019 05:00:00 0,5 -2,6 2 1 NE 0,0
16.03.2019 04:00:00 0,8 -2,6 3 1 SE 0,0
16.03.2019 03:00:00 1,0 -2,6 2 1 SSW 0,0
16.03.2019 02:00:00 2,0 -2,5 5 3 S 0,0
16.03.2019 01:00:00 4,0 -2,6 13 7 ENE 0,0
16.03.2019 00:00:00 4,6 -2,7 19 11 ENE 0,0
15.03.2019 23:00:00 4,9 -2,5 13 7 ENE 0,0
15.03.2019 22:00:00 5,3 -2,3 15 8 ENE 0,0
15.03.2019 21:00:00 6,0 -2,4 9 5 E 0,0
15.03.2019 20:00:00 7,0 -1,9 15 8 ENE 0,0
15.03.2019 19:00:00 7,5 -1,7 14 7 NE 0,0
15.03.2019 18:00:00 8,5 -1,9 22 12 NE 0,0
15.03.2019 17:00:00 10,1 -1,6 22 12 NE 0,0
15.03.2019 16:00:00 11,5 -1,0 8 4 ENE 0,0
15.03.2019 15:00:00 10,3 -1,8 19 10 NNE 0,0
15.03.2019 14:00:00 11,6 -1,9 10 5 NNE 0,0
15.03.2019 13:00:00 11,1 -1,3 8 4 E 0,0
15.03.2019 12:00:00 11,5 -1,0 8 4 N 0,0
15.03.2019 11:00:00 10,0 -1,1 8 5 N 0,0
15.03.2019 10:00:00 8,7 0,2 8 4 NE 0,0
15.03.2019 09:00:00 8,4 -0,6 22 12 ENE 0,0
15.03.2019 08:00:00 3,3 0,2 13 7 E 0,0
15.03.2019 07:00:00 1,6 0,1 9 5 E 0,0
15.03.2019 06:00:00 2,8 0,7 9 5 E 0,0
15.03.2019 05:00:00 4,9 0,3 16 9 SE 0,2
15.03.2019 04:00:00 1,9 0,1 13 7 E 0,4
15.03.2019 03:00:00 0,4 -0,2 9 5 NNE 0,2
15.03.2019 02:00:00 0,0 -0,4 4 2 E 0,0
15.03.2019 01:00:00 -0,1 -0,5 3 2 NNE 0,4
15.03.2019 00:00:00 -0,2 -0,6 4 2 S 0,0
14.03.2019 23:00:00 -0,2 -0,6 4 2 SW 2,2
14.03.2019 22:00:00 -0,1 -0,5 2 1 SSW 2,0
14.03.2019 21:00:00 0,0 -0,4 3 1 WSW 2,2
14.03.2019 20:00:00 0,1 -0,3 4 2 WSW 2,4
14.03.2019 19:00:00 0,2 -0,4 0 0 N 1,6
14.03.2019 18:00:00 0,6 -0,4 2 1 NE 1,0
14.03.2019 17:00:00 1,3 -0,6 16 9 NE 0,0
14.03.2019 16:00:00 5,0 -3,8 29 16 NNE 0,0
14.03.2019 15:00:00 6,9 -4,5 22 12 NNE 0,0
14.03.2019 14:00:00 8,1 -5,7 13 7 N 0,0
14.03.2019 13:00:00 7,4 -6,0 11 6 W 0,0
14.03.2019 12:00:00 5,3 -7,2 15 8 W 0,0
14.03.2019 11:00:00 3,2 -7,3 16 9 W 0,0
14.03.2019 10:00:00 -0,8 -6,4 5 3 ESE 0,0
14.03.2019 09:00:00 -2,9 -7,4 8 4 SSW 0,0
14.03.2019 08:00:00 -3,6 -7,7 7 4 E 0,0
14.03.2019 07:00:00 -3,9 -7,5 5 3 S 0,0
14.03.2019 06:00:00 -3,7 -7,7 4 2 SE 0,0
14.03.2019 05:00:00 -3,3 -7,5 4 2 E 0,0
14.03.2019 04:00:00 -2,7 -7,2 4 2 SSE 0,0
14.03.2019 03:00:00 -1,9 -7,4 13 7 SSW 0,0
14.03.2019 02:00:00 -0,9 -7,7 11 6 SSW 0,0
14.03.2019 01:00:00 0,2 -7,1 5 3 E 0,0
14.03.2019 00:00:00 0,2 -8,5 8 5 NE 0,0
13.03.2019 23:00:00 0,2 -8,5 11 6 ESE 0,0
13.03.2019 22:00:00 0,2 -7,6 9 5 N 0,0
13.03.2019 21:00:00 0,6 -8,6 7 4 N 0,0
13.03.2019 20:00:00 0,6 -8,1 3 2 NNW 0,0
13.03.2019 19:00:00 0,8 -9,3 2 1 ENE 0,0
13.03.2019 18:00:00 1,7 -9,6 8 4 NNW 0,0
13.03.2019 17:00:00 4,2 -9,9 8 4 NNW 0,0
13.03.2019 16:00:00 4,2 -10,7 9 5 NW 0,0
13.03.2019 15:00:00 4,3 -12,2 13 7 WNW 0,0
13.03.2019 14:00:00 4,6 -11,5 10 6 NNW 0,0
13.03.2019 13:00:00 3,9 -11,7 18 10 N 0,0
13.03.2019 12:00:00 2,6 -10,7 11 6 NNW 0,0
13.03.2019 11:00:00 3,3 -7,8 13 7 WNW 0,0
13.03.2019 10:00:00 2,4 -7,5 6 3 N 0,0

tt = temperature
td = dewpoint
ff = wind speed
dd = wind direction
rr = precipitation

Next stations